Time;durP1;ratioP1;P1;durP2;ratioP2;P2;SDS_P1;SDS_P2;PMS_P1;PMS_P2;Temp;Humidity;BMP_temperature;BMP_pressure;BME280_temperature;BME280_humidity;BME280_pressure;Samples;Min_cycle;Max_cycle;Signal;HPM_P1;HPM_P2
2021/08/16 00:01:57;;;;;;;14.33;5.43;;;;;;;;;;5070568;28;20016;-67
2021/08/16 00:04:22;;;;;;;14.67;4.63;;;;;;;;;;5070616;28;20291;-67
2021/08/16 00:06:47;;;;;;;16.67;4.83;;;;;;;;;;5071383;28;20759;-67
2021/08/16 00:09:12;;;;;;;12.33;4.27;;;;;;;;;;5071093;28;20302;-67
2021/08/16 00:11:39;;;;;;;17.98;4.13;;;;;;;;;;5071268;28;20346;-67
2021/08/16 00:14:05;;;;;;;8.68;3.22;;;;;;;;;;5070530;28;20554;-67
2021/08/16 00:16:31;;;;;;;6.00;2.47;;;;;;;;;;5071227;28;20035;-67
2021/08/16 00:18:56;;;;;;;5.88;2.58;;;;;;;;;;5068747;28;20021;-67
2021/08/16 00:21:21;;;;;;;11.20;3.10;;;;;;;;;;5070483;28;20017;-67
2021/08/16 00:23:46;;;;;;;10.07;2.85;;;;;;;;;;5070765;28;20298;-67
2021/08/16 00:26:13;;;;;;;7.38;1.98;;;;;;;;;;5070859;28;20016;-67
2021/08/16 00:28:38;;;;;;;4.93;2.55;;;;;;;;;;5071191;28;20107;-67
2021/08/16 00:31:03;;;;;;;8.38;2.60;;;;;;;;;;5070490;28;20467;-67
2021/08/16 00:33:28;;;;;;;6.17;2.13;;;;;;;;;;5070490;28;20021;-67
2021/08/16 00:35:53;;;;;;;12.47;3.27;;;;;;;;;;5053143;28;20112;-67
2021/08/16 00:38:19;;;;;;;11.00;2.47;;;;;;;;;;5069847;28;20281;-67
2021/08/16 00:40:44;;;;;;;9.23;2.80;;;;;;;;;;5071097;28;20320;-67
2021/08/16 00:43:09;;;;;;;17.20;4.03;;;;;;;;;;5070178;28;20757;-67
2021/08/16 00:45:34;;;;;;;11.05;2.83;;;;;;;;;;5070386;28;20354;-67
2021/08/16 00:47:59;;;;;;;10.32;3.75;;;;;;;;;;5070491;28;20103;-67
2021/08/16 00:50:25;;;;;;;8.10;3.30;;;;;;;;;;5070470;28;20035;-67
2021/08/16 00:52:50;;;;;;;12.48;3.17;;;;;;;;;;5069828;28;20347;-67
2021/08/16 00:55:15;;;;;;;8.10;2.70;;;;;;;;;;5070721;28;20024;-67
2021/08/16 00:57:41;;;;;;;9.55;3.35;;;;;;;;;;5070586;28;20052;-67
2021/08/16 01:00:07;;;;;;;16.38;4.13;;;;;;;;;;5055268;28;20115;-67
2021/08/16 01:02:32;;;;;;;13.55;2.67;;;;;;;;;;5069619;28;20048;-67
2021/08/16 01:05:00;;;;;;;15.63;4.30;;;;;;;;;;5070494;28;20479;-67
2021/08/16 01:07:25;;;;;;;17.02;3.33;;;;;;;;;;5070447;28;20123;-67
2021/08/16 01:09:50;;;;;;;14.40;2.70;;;;;;;;;;5070874;28;20281;-67
2021/08/16 01:12:15;;;;;;;14.38;3.00;;;;;;;;;;5070183;28;20308;-67
2021/08/16 01:14:41;;;;;;;16.23;4.22;;;;;;;;;;5070122;28;20020;-67
2021/08/16 01:17:07;;;;;;;10.60;3.03;;;;;;;;;;5069891;28;20033;-67
2021/08/16 01:19:32;;;;;;;7.13;2.40;;;;;;;;;;5080925;22;20307;-66
2021/08/16 01:21:57;;;;;;;14.80;2.45;;;;;;;;;;5043866;28;20112;-67
2021/08/16 01:24:23;;;;;;;11.17;2.40;;;;;;;;;;5049791;28;20053;-66
2021/08/16 01:26:48;;;;;;;9.70;2.75;;;;;;;;;;5050379;28;20259;-66
2021/08/16 01:29:15;;;;;;;8.85;2.90;;;;;;;;;;5049793;28;20025;-66
2021/08/16 01:31:40;;;;;;;10.02;2.20;;;;;;;;;;5050166;28;20091;-66
2021/08/16 01:34:05;;;;;;;10.32;3.30;;;;;;;;;;5049720;28;20029;-67
2021/08/16 01:36:30;;;;;;;8.03;2.77;;;;;;;;;;5049514;28;20036;-66
2021/08/16 01:38:56;;;;;;;8.67;2.13;;;;;;;;;;5050139;28;20268;-67
2021/08/16 01:41:21;;;;;;;8.32;2.40;;;;;;;;;;5049956;28;20271;-67
2021/08/16 01:43:46;;;;;;;11.30;2.67;;;;;;;;;;5049558;28;20449;-66
2021/08/16 01:46:11;;;;;;;6.97;1.90;;;;;;;;;;5050012;28;20262;-66
2021/08/16 01:48:37;;;;;;;12.38;2.35;;;;;;;;;;5050456;28;20259;-66
2021/08/16 01:51:02;;;;;;;16.37;2.17;;;;;;;;;;5049471;28;20100;-66
2021/08/16 01:53:27;;;;;;;8.07;2.00;;;;;;;;;;5049220;28;20275;-67
2021/08/16 01:55:52;;;;;;;27.70;3.28;;;;;;;;;;5049555;28;20271;-67
2021/08/16 01:58:17;;;;;;;9.57;1.88;;;;;;;;;;5049521;28;20497;-66
2021/08/16 02:00:43;;;;;;;11.98;2.08;;;;;;;;;;5049583;28;20036;-67
2021/08/16 02:03:08;;;;;;;10.73;2.80;;;;;;;;;;5048510;28;20021;-67
2021/08/16 02:05:33;;;;;;;6.93;2.23;;;;;;;;;;5049953;28;20063;-66
2021/08/16 02:07:59;;;;;;;14.10;3.95;;;;;;;;;;5048644;28;20722;-66
2021/08/16 02:10:24;;;;;;;11.02;2.97;;;;;;;;;;5049767;28;20124;-67
2021/08/16 02:12:49;;;;;;;13.77;2.60;;;;;;;;;;5049106;28;20033;-66
2021/08/16 02:15:14;;;;;;;11.50;2.27;;;;;;;;;;5049981;28;20024;-66
2021/08/16 02:17:39;;;;;;;11.43;2.20;;;;;;;;;;5051458;28;20346;-66
2021/08/16 02:20:06;;;;;;;11.27;2.40;;;;;;;;;;5069446;28;20275;-66
2021/08/16 02:22:31;;;;;;;8.57;1.98;;;;;;;;;;5069229;28;20662;-66
2021/08/16 02:24:56;;;;;;;15.00;2.77;;;;;;;;;;5069284;28;20086;-67
2021/08/16 02:27:22;;;;;;;15.00;3.17;;;;;;;;;;5069477;28;20255;-67
2021/08/16 02:29:47;;;;;;;9.77;2.55;;;;;;;;;;5073269;28;20863;-66
2021/08/16 02:32:12;;;;;;;12.35;2.45;;;;;;;;;;5072705;28;20020;-66
2021/08/16 02:34:37;;;;;;;16.57;1.93;;;;;;;;;;5073187;28;20021;-66
2021/08/16 02:37:03;;;;;;;7.47;2.30;;;;;;;;;;5072796;28;20263;-66
2021/08/16 02:39:29;;;;;;;8.82;2.35;;;;;;;;;;5073167;28;20262;-66
2021/08/16 02:41:54;;;;;;;14.35;1.95;;;;;;;;;;5070976;28;20139;-66
2021/08/16 02:44:19;;;;;;;9.68;3.40;;;;;;;;;;5073068;28;20356;-66
2021/08/16 02:46:45;;;;;;;10.07;2.08;;;;;;;;;;5072896;28;20016;-66
2021/08/16 02:49:10;;;;;;;8.17;1.80;;;;;;;;;;5072782;28;20027;-66
2021/08/16 02:51:35;;;;;;;8.67;1.87;;;;;;;;;;5054943;28;20817;-66
2021/08/16 02:54:00;;;;;;;9.77;1.73;;;;;;;;;;5053796;28;20277;-66
2021/08/16 02:56:25;;;;;;;9.87;2.13;;;;;;;;;;5072303;28;20281;-66
2021/08/16 02:58:50;;;;;;;11.40;2.33;;;;;;;;;;5072522;28;20361;-66
2021/08/16 03:01:16;;;;;;;13.23;1.73;;;;;;;;;;5072612;28;20262;-66
2021/08/16 03:03:41;;;;;;;9.85;2.08;;;;;;;;;;5071756;28;20283;-66
2021/08/16 03:06:06;;;;;;;10.70;2.00;;;;;;;;;;5071377;28;20020;-67
2021/08/16 03:08:32;;;;;;;12.67;2.80;;;;;;;;;;5072500;28;20062;-66
2021/08/16 03:10:57;;;;;;;5.88;1.85;;;;;;;;;;5072099;28;20294;-66
2021/08/16 03:13:22;;;;;;;9.63;2.25;;;;;;;;;;5072343;28;20075;-66
2021/08/16 03:15:48;;;;;;;6.45;1.92;;;;;;;;;;5072697;28;20078;-65
2021/08/16 03:18:13;;;;;;;10.77;2.10;;;;;;;;;;5072175;28;20086;-67
2021/08/16 03:20:40;;;;;;;10.20;3.10;;;;;;;;;;5072176;28;20263;-66
2021/08/16 03:23:05;;;;;;;5.90;1.75;;;;;;;;;;5071743;28;20282;-66
2021/08/16 03:25:30;;;;;;;7.70;1.70;;;;;;;;;;5072005;28;20429;-66
2021/08/16 03:27:55;;;;;;;8.25;2.30;;;;;;;;;;5071912;28;20277;-66
2021/08/16 03:30:20;;;;;;;8.40;2.47;;;;;;;;;;5070653;28;20031;-66
2021/08/16 03:32:48;;;;;;;11.70;1.90;;;;;;;;;;5071838;28;20274;-66
2021/08/16 03:35:14;;;;;;;9.07;1.83;;;;;;;;;;5071827;28;20275;-66
2021/08/16 03:37:39;;;;;;;12.27;3.50;;;;;;;;;;5071695;28;20161;-66
2021/08/16 03:40:05;;;;;;;12.40;2.13;;;;;;;;;;5071237;28;20095;-66
2021/08/16 03:42:30;;;;;;;11.43;2.65;;;;;;;;;;5070545;28;20025;-66
2021/08/16 03:44:56;;;;;;;10.45;1.90;;;;;;;;;;5071098;28;20028;-66
2021/08/16 03:47:21;;;;;;;10.17;1.63;;;;;;;;;;5071876;28;20044;-66
2021/08/16 03:49:46;;;;;;;8.73;2.22;;;;;;;;;;5071960;28;20258;-66
2021/08/16 03:52:12;;;;;;;10.90;2.30;;;;;;;;;;5070882;28;20034;-66
2021/08/16 03:54:37;;;;;;;5.93;1.90;;;;;;;;;;5056384;28;20263;-66
2021/08/16 03:57:02;;;;;;;10.68;2.78;;;;;;;;;;5071830;28;20086;-66
2021/08/16 03:59:27;;;;;;;9.15;1.90;;;;;;;;;;5053678;28;20082;-66
2021/08/16 04:01:52;;;;;;;8.37;1.80;;;;;;;;;;5071173;28;20020;-66
2021/08/16 04:04:18;;;;;;;10.53;3.00;;;;;;;;;;5071058;28;20293;-66
2021/08/16 04:06:44;;;;;;;7.75;2.00;;;;;;;;;;5071309;28;20274;-67
2021/08/16 04:09:09;;;;;;;10.05;1.88;;;;;;;;;;5077327;28;20466;-66
2021/08/16 04:11:34;;;;;;;11.23;2.25;;;;;;;;;;5091945;28;20012;-66
2021/08/16 04:13:59;;;;;;;7.00;1.80;;;;;;;;;;5077809;28;20036;-66
2021/08/16 04:16:25;;;;;;;8.43;2.70;;;;;;;;;;5071115;28;20298;-66
2021/08/16 04:18:50;;;;;;;11.17;2.37;;;;;;;;;;5070487;28;20782;-65
2021/08/16 04:21:15;;;;;;;17.23;1.98;;;;;;;;;;5056267;28;20267;-66
2021/08/16 04:23:40;;;;;;;11.90;2.45;;;;;;;;;;5070242;28;20024;-66
2021/08/16 04:26:05;;;;;;;12.13;1.73;;;;;;;;;;5070142;28;20090;-66
2021/08/16 04:28:31;;;;;;;8.07;2.35;;;;;;;;;;5069850;28;20776;-66
2021/08/16 04:30:56;;;;;;;7.53;1.65;;;;;;;;;;5069642;28;20143;-66
2021/08/16 04:33:24;;;;;;;13.63;2.17;;;;;;;;;;5070171;28;20107;-66
2021/08/16 04:35:49;;;;;;;7.45;2.15;;;;;;;;;;5070853;28;20048;-66
2021/08/16 04:38:19;;;;;;;13.07;2.05;;;;;;;;;;5070659;28;20109;-65
2021/08/16 04:40:44;;;;;;;9.23;2.58;;;;;;;;;;5070996;28;20390;-66
2021/08/16 04:43:09;;;;;;;9.63;2.65;;;;;;;;;;5069904;28;20111;-66
2021/08/16 04:45:34;;;;;;;11.97;1.90;;;;;;;;;;5070201;28;20064;-66
2021/08/16 04:47:59;;;;;;;9.87;2.60;;;;;;;;;;5070052;28;20302;-66
2021/08/16 04:50:25;;;;;;;12.80;2.27;;;;;;;;;;5069693;28;20251;-66
2021/08/16 04:52:50;;;;;;;11.50;1.90;;;;;;;;;;5070192;28;20915;-66
2021/08/16 04:55:15;;;;;;;15.67;2.23;;;;;;;;;;5070016;28;20275;-65
2021/08/16 04:57:40;;;;;;;10.38;3.55;;;;;;;;;;5072874;28;20270;-66
2021/08/16 05:00:09;;;;;;;19.05;2.65;;;;;;;;;;5079858;28;20107;-66
2021/08/16 05:02:35;;;;;;;10.98;2.10;;;;;;;;;;5069171;28;20044;-66
2021/08/16 05:05:14;;;;;;;10.15;2.03;;;;;;;;;;5070262;28;20012;-66
2021/08/16 05:07:49;;;;;;;9.02;2.58;;;;;;;;;;5061133;28;20027;-66
2021/08/16 05:10:14;;;;;;;13.07;2.58;;;;;;;;;;5070131;28;20020;-66
2021/08/16 05:12:40;;;;;;;8.00;2.63;;;;;;;;;;5069908;28;20043;-66
2021/08/16 05:15:05;;;;;;;13.35;2.80;;;;;;;;;;5070117;28;20883;-66
2021/08/16 05:17:31;;;;;;;11.65;2.67;;;;;;;;;;5069687;28;20024;-66
2021/08/16 05:19:57;;;;;;;13.52;3.08;;;;;;;;;;5069849;28;20024;-66
2021/08/16 05:22:22;;;;;;;24.23;2.83;;;;;;;;;;5070082;28;20409;-66
2021/08/16 05:24:47;;;;;;;15.40;3.13;;;;;;;;;;5069729;28;20031;-66
2021/08/16 05:27:12;;;;;;;8.27;2.20;;;;;;;;;;5070125;28;20027;-66
2021/08/16 05:29:38;;;;;;;9.10;2.73;;;;;;;;;;5069500;28;20767;-66
2021/08/16 05:32:03;;;;;;;15.77;2.70;;;;;;;;;;5069603;28;20287;-66
2021/08/16 05:34:28;;;;;;;16.88;2.70;;;;;;;;;;5069294;28;20720;-65
2021/08/16 05:36:54;;;;;;;15.23;2.90;;;;;;;;;;5070107;28;20020;-66
2021/08/16 05:39:19;;;;;;;29.60;3.33;;;;;;;;;;5069804;28;20069;-66
2021/08/16 05:41:44;;;;;;;12.07;2.53;;;;;;;;;;5066651;28;20031;-66
2021/08/16 05:44:09;;;;;;;11.90;2.75;;;;;;;;;;5066755;28;20686;-66
2021/08/16 05:46:35;;;;;;;17.13;3.25;;;;;;;;;;5074790;28;20452;-66
2021/08/16 05:49:00;;;;;;;12.30;2.28;;;;;;;;;;5072899;28;20094;-66
2021/08/16 05:51:25;;;;;;;23.05;3.40;;;;;;;;;;5068190;28;20033;-66
2021/08/16 05:53:50;;;;;;;12.10;3.40;;;;;;;;;;5065860;28;20081;-66
2021/08/16 05:56:15;;;;;;;9.60;2.80;;;;;;;;;;5064935;28;20267;-66
2021/08/16 05:58:42;;;;;;;16.57;2.67;;;;;;;;;;5068553;28;20259;-66
2021/08/16 06:01:08;;;;;;;7.15;2.50;;;;;;;;;;5066893;28;20353;-66
2021/08/16 06:03:34;;;;;;;13.10;1.92;;;;;;;;;;5052244;28;20099;-66
2021/08/16 06:05:59;;;;;;;9.77;3.03;;;;;;;;;;5067114;28;20028;-65
2021/08/16 06:08:24;;;;;;;10.80;2.70;;;;;;;;;;5072782;28;20020;-66
2021/08/16 06:10:49;;;;;;;14.20;2.90;;;;;;;;;;5073550;28;20282;-66
2021/08/16 06:13:14;;;;;;;12.60;2.55;;;;;;;;;;5070396;28;20264;-66
2021/08/16 06:15:40;;;;;;;15.33;2.60;;;;;;;;;;5073652;28;20378;-66
2021/08/16 06:18:05;;;;;;;12.90;2.53;;;;;;;;;;5072894;28;20275;-66
2021/08/16 06:20:30;;;;;;;14.63;2.70;;;;;;;;;;5073732;28;20020;-66
2021/08/16 06:22:55;;;;;;;13.15;2.60;;;;;;;;;;5071158;28;20028;-66
2021/08/16 06:25:21;;;;;;;11.85;2.70;;;;;;;;;;5077297;28;20099;-66
2021/08/16 06:27:46;;;;;;;12.45;2.42;;;;;;;;;;5080095;28;20012;-66
2021/08/16 06:30:11;;;;;;;13.60;3.00;;;;;;;;;;5072296;28;20017;-66
2021/08/16 06:32:37;;;;;;;14.00;3.67;;;;;;;;;;5071478;28;20740;-66
2021/08/16 06:35:03;;;;;;;10.40;2.60;;;;;;;;;;5071883;28;20023;-66
2021/08/16 06:37:28;;;;;;;12.80;3.35;;;;;;;;;;5071024;28;20110;-66
2021/08/16 06:39:53;;;;;;;9.50;2.53;;;;;;;;;;5072540;28;20051;-66
2021/08/16 06:42:19;;;;;;;17.07;2.97;;;;;;;;;;5076288;28;20124;-66
2021/08/16 06:44:45;;;;;;;13.88;3.05;;;;;;;;;;5072810;28;20283;-66
2021/08/16 06:47:10;;;;;;;23.08;3.08;;;;;;;;;;5072716;28;20156;-66
2021/08/16 06:49:35;;;;;;;12.73;2.97;;;;;;;;;;5075607;28;20021;-66
2021/08/16 06:52:00;;;;;;;22.83;4.30;;;;;;;;;;5071625;28;20043;-66
2021/08/16 06:54:26;;;;;;;16.53;3.20;;;;;;;;;;5072603;28;20024;-66
2021/08/16 06:56:51;;;;;;;16.20;4.53;;;;;;;;;;5072484;28;20357;-66
2021/08/16 06:59:16;;;;;;;11.45;2.78;;;;;;;;;;5072819;28;20034;-66
2021/08/16 07:01:42;;;;;;;13.23;2.57;;;;;;;;;;5072232;28;20478;-66
2021/08/16 07:04:07;;;;;;;16.83;3.00;;;;;;;;;;5071492;28;20321;-66
2021/08/16 07:06:33;;;;;;;10.27;2.50;;;;;;;;;;5071610;28;20016;-66
2021/08/16 07:08:58;;;;;;;15.48;2.92;;;;;;;;;;5071991;28;20290;-66
2021/08/16 07:11:23;;;;;;;15.33;2.70;;;;;;;;;;5071319;28;20050;-66
2021/08/16 07:13:48;;;;;;;13.40;2.30;;;;;;;;;;5070563;28;20305;-66
2021/08/16 07:16:13;;;;;;;11.47;2.40;;;;;;;;;;5071537;28;21038;-66
2021/08/16 07:18:40;;;;;;;9.23;2.50;;;;;;;;;;5056989;28;20270;-66
2021/08/16 07:21:06;;;;;;;10.02;2.33;;;;;;;;;;5071714;28;20438;-67
2021/08/16 07:23:31;;;;;;;9.82;2.22;;;;;;;;;;5073529;28;20052;-66
2021/08/16 07:26:00;;;;;;;15.75;2.83;;;;;;;;;;5068313;28;20104;-66
2021/08/16 07:28:26;;;;;;;14.82;2.47;;;;;;;;;;5065646;28;20017;-67
2021/08/16 07:30:52;;;;;;;18.55;3.33;;;;;;;;;;5079865;28;20028;-66
2021/08/16 07:33:17;;;;;;;12.63;2.53;;;;;;;;;;5071639;28;20032;-66
2021/08/16 07:35:42;;;;;;;17.63;2.83;;;;;;;;;;5071959;28;20400;-66
2021/08/16 07:38:07;;;;;;;11.77;4.43;;;;;;;;;;5070076;28;20798;-67
2021/08/16 07:40:32;;;;;;;12.93;3.20;;;;;;;;;;5070324;28;20031;-67
2021/08/16 07:42:58;;;;;;;8.38;2.30;;;;;;;;;;5070119;28;20032;-67
2021/08/16 07:45:23;;;;;;;13.75;3.25;;;;;;;;;;5070677;28;20020;-67
2021/08/16 07:47:48;;;;;;;6.47;1.87;;;;;;;;;;5071096;28;20027;-67
2021/08/16 07:50:13;;;;;;;8.27;1.77;;;;;;;;;;5070938;28;20367;-67
2021/08/16 07:52:39;;;;;;;6.73;1.90;;;;;;;;;;5071244;28;20303;-67
2021/08/16 07:55:05;;;;;;;8.93;2.17;;;;;;;;;;5071311;28;20358;-67
2021/08/16 07:57:31;;;;;;;10.85;2.15;;;;;;;;;;5072550;28;20158;-67
2021/08/16 07:59:57;;;;;;;9.88;1.92;;;;;;;;;;5069665;28;20017;-67
2021/08/16 08:02:22;;;;;;;13.23;2.20;;;;;;;;;;5070021;28;20024;-66
2021/08/16 08:04:48;;;;;;;7.27;1.70;;;;;;;;;;5070226;28;20020;-67
2021/08/16 08:07:13;;;;;;;15.80;2.47;;;;;;;;;;5071463;28;20056;-67
2021/08/16 08:09:38;;;;;;;10.20;2.10;;;;;;;;;;5071353;28;20067;-67
2021/08/16 08:12:04;;;;;;;7.93;1.80;;;;;;;;;;5086391;28;20254;-67
2021/08/16 08:14:29;;;;;;;5.72;1.70;;;;;;;;;;5071057;28;20029;-67
2021/08/16 08:16:54;;;;;;;7.65;1.60;;;;;;;;;;5083023;28;20016;-67
2021/08/16 08:19:19;;;;;;;12.07;2.07;;;;;;;;;;5070840;28;20024;-67
2021/08/16 08:21:45;;;;;;;8.07;2.22;;;;;;;;;;5070883;28;20267;-66
2021/08/16 08:24:10;;;;;;;10.65;2.25;;;;;;;;;;5067600;28;20021;-67
2021/08/16 08:26:35;;;;;;;6.33;2.00;;;;;;;;;;5068335;28;20035;-67
2021/08/16 08:29:00;;;;;;;8.20;1.93;;;;;;;;;;5070348;28;20282;-67
2021/08/16 08:31:26;;;;;;;15.30;2.47;;;;;;;;;;5070852;28;20270;-67
2021/08/16 08:33:52;;;;;;;8.07;2.38;;;;;;;;;;5070758;28;20016;-67
2021/08/16 08:36:17;;;;;;;15.25;2.38;;;;;;;;;;5070637;28;20041;-67
2021/08/16 08:38:42;;;;;;;9.05;2.58;;;;;;;;;;5070740;28;20514;-66
2021/08/16 08:41:08;;;;;;;10.97;2.30;;;;;;;;;;5070090;28;20020;-66
2021/08/16 08:43:34;;;;;;;10.05;2.30;;;;;;;;;;5070406;28;20759;-67
2021/08/16 08:46:00;;;;;;;7.88;2.28;;;;;;;;;;5070444;28;20027;-67
2021/08/16 08:48:26;;;;;;;11.63;2.13;;;;;;;;;;5070875;28;20040;-66
2021/08/16 08:50:52;;;;;;;10.10;3.00;;;;;;;;;;5069612;28;20462;-67
2021/08/16 08:53:17;;;;;;;13.63;2.55;;;;;;;;;;5070015;28;20748;-66
2021/08/16 08:55:44;;;;;;;13.17;2.50;;;;;;;;;;5069386;28;20078;-66
2021/08/16 08:58:09;;;;;;;14.80;2.38;;;;;;;;;;5063378;28;20299;-66
2021/08/16 09:00:36;;;;;;;13.10;2.90;;;;;;;;;;5072575;28;20109;-67
2021/08/16 09:03:02;;;;;;;19.50;3.28;;;;;;;;;;5070121;28;20278;-67
2021/08/16 09:05:28;;;;;;;11.25;2.63;;;;;;;;;;5069824;28;20433;-66
2021/08/16 09:07:59;;;;;;;9.43;2.33;;;;;;;;;;5052093;28;20016;-66
2021/08/16 09:10:25;;;;;;;9.27;3.05;;;;;;;;;;5082674;28;20474;-66
2021/08/16 09:12:54;;;;;;;12.20;2.30;;;;;;;;;;5077603;28;20085;-67
2021/08/16 09:15:23;;;;;;;14.83;2.67;;;;;;;;;;5071941;28;20038;-66
2021/08/16 09:17:48;;;;;;;9.63;2.60;;;;;;;;;;5069754;28;20021;-67
2021/08/16 09:20:14;;;;;;;9.75;2.85;;;;;;;;;;5047061;28;20094;-67
2021/08/16 09:22:40;;;;;;;15.25;2.72;;;;;;;;;;5049806;28;20052;-66
2021/08/16 09:25:08;;;;;;;29.00;2.60;;;;;;;;;;5051720;28;20053;-67
2021/08/16 09:27:41;;;;;;;8.18;2.10;;;;;;;;;;5058014;28;20333;-67
2021/08/16 09:30:07;;;;;;;14.05;3.00;;;;;;;;;;5049274;28;20095;-67
2021/08/16 09:32:33;;;;;;;10.18;2.22;;;;;;;;;;5048853;28;20013;-66
2021/08/16 09:35:05;;;;;;;5.35;2.08;;;;;;;;;;5058309;28;20029;-67
2021/08/16 09:37:30;;;;;;;9.23;2.53;;;;;;;;;;5051601;28;20070;-66
2021/08/16 09:40:00;;;;;;;10.03;2.03;;;;;;;;;;5050027;28;20099;-67
2021/08/16 09:42:25;;;;;;;8.50;3.10;;;;;;;;;;5049429;28;20741;-66
2021/08/16 09:44:53;;;;;;;6.82;2.55;;;;;;;;;;5050205;28;20033;-66
2021/08/16 09:47:18;;;;;;;10.90;3.17;;;;;;;;;;5048916;28;20023;-67
2021/08/16 09:49:54;;;;;;;12.38;1.83;;;;;;;;;;5047465;28;20406;-66
2021/08/16 09:52:27;;;;;;;11.93;3.30;;;;;;;;;;5048761;28;20044;-66
2021/08/16 09:54:52;;;;;;;10.68;2.30;;;;;;;;;;5049306;28;20017;-67
2021/08/16 09:57:17;;;;;;;8.90;2.63;;;;;;;;;;5049573;28;20024;-66
2021/08/16 09:59:42;;;;;;;14.23;1.90;;;;;;;;;;5049426;28;20033;-66
2021/08/16 10:02:08;;;;;;;9.35;2.55;;;;;;;;;;5049337;28;20483;-67
2021/08/16 10:04:33;;;;;;;6.65;2.42;;;;;;;;;;5048792;28;20032;-67
2021/08/16 10:06:59;;;;;;;9.57;3.00;;;;;;;;;;5055859;28;20539;-66
2021/08/16 10:09:25;;;;;;;11.50;2.50;;;;;;;;;;5069790;28;20021;-67
2021/08/16 10:11:51;;;;;;;15.57;2.22;;;;;;;;;;5062558;28;20024;-67
2021/08/16 10:14:20;;;;;;;12.75;2.63;;;;;;;;;;5049417;28;20075;-67
2021/08/16 10:16:47;;;;;;;12.02;2.22;;;;;;;;;;5047269;28;20024;-66
2021/08/16 10:19:14;;;;;;;7.75;2.00;;;;;;;;;;5061858;28;20107;-67
2021/08/16 10:21:40;;;;;;;12.30;2.33;;;;;;;;;;5049429;28;20048;-66
2021/08/16 10:24:31;;;;;;;8.48;2.30;;;;;;;;;;5030803;28;20048;-66
2021/08/16 10:26:56;;;;;;;6.30;2.00;;;;;;;;;;5050683;28;20029;-66
2021/08/16 10:29:22;;;;;;;6.45;1.92;;;;;;;;;;5053452;28;20017;-66
2021/08/16 10:31:50;;;;;;;5.50;1.52;;;;;;;;;;5048372;28;20021;-66
2021/08/16 10:34:23;;;;;;;13.82;2.38;;;;;;;;;;5048612;28;20021;-66
2021/08/16 10:36:56;;;;;;;8.00;2.38;;;;;;;;;;5049092;28;20029;-66
2021/08/16 10:39:31;;;;;;;9.48;2.30;;;;;;;;;;5048394;28;20386;-65
2021/08/16 10:42:03;;;;;;;12.75;2.42;;;;;;;;;;5048794;28;20392;-67
2021/08/16 10:44:36;;;;;;;9.32;2.40;;;;;;;;;;5049165;28;20025;-66
2021/08/16 10:47:02;;;;;;;18.75;4.25;;;;;;;;;;5048562;28;20021;-67
2021/08/16 10:49:31;;;;;;;16.60;2.70;;;;;;;;;;5050986;28;20028;-67
2021/08/16 10:51:56;;;;;;;26.53;3.13;;;;;;;;;;5052664;28;20489;-67
2021/08/16 10:54:26;;;;;;;14.07;2.53;;;;;;;;;;5052110;28;20108;-67
2021/08/16 10:56:52;;;;;;;11.00;2.95;;;;;;;;;;5052420;28;20079;-66
2021/08/16 10:59:19;;;;;;;7.65;2.00;;;;;;;;;;5052641;28;20477;-66
2021/08/16 11:01:46;;;;;;;13.93;2.83;;;;;;;;;;5051987;28;20017;-67
2021/08/16 11:04:15;;;;;;;8.85;2.63;;;;;;;;;;5052233;28;20565;-66
2021/08/16 11:06:54;;;;;;;10.15;2.45;;;;;;;;;;5052622;28;20060;-67
2021/08/16 11:09:23;;;;;;;12.93;3.85;;;;;;;;;;5051271;28;20107;-67
2021/08/16 11:11:52;;;;;;;13.20;3.00;;;;;;;;;;5052147;28;20081;-67
2021/08/16 11:14:22;;;;;;;13.07;3.80;;;;;;;;;;5049139;28;20021;-66
2021/08/16 11:16:48;;;;;;;11.10;3.63;;;;;;;;;;5050774;28;20017;-66
2021/08/16 11:19:13;;;;;;;6.75;2.50;;;;;;;;;;5064101;28;20032;-65
2021/08/16 11:21:38;;;;;;;7.28;2.13;;;;;;;;;;5069779;28;20032;-66
2021/08/16 11:24:04;;;;;;;7.78;2.28;;;;;;;;;;5075797;28;20028;-66
2021/08/16 11:26:29;;;;;;;10.38;2.90;;;;;;;;;;5077357;28;20490;-66
2021/08/16 11:29:04;;;;;;;5.47;2.10;;;;;;;;;;5071233;28;20509;-66
2021/08/16 11:31:30;;;;;;;5.82;2.60;;;;;;;;;;5060582;28;20099;-66
2021/08/16 11:34:06;;;;;;;7.20;2.70;;;;;;;;;;5070783;28;20017;-66
2021/08/16 11:36:35;;;;;;;4.88;2.50;;;;;;;;;;5067273;28;20024;-66
2021/08/16 11:39:01;;;;;;;6.15;2.67;;;;;;;;;;5069671;28;20031;-66
2021/08/16 11:41:29;;;;;;;10.20;3.63;;;;;;;;;;5070242;28;20020;-66
2021/08/16 11:43:54;;;;;;;7.28;2.40;;;;;;;;;;5070654;28;20384;-66
2021/08/16 11:46:20;;;;;;;7.90;2.50;;;;;;;;;;5072179;28;20032;-66
2021/08/16 11:48:49;;;;;;;7.75;2.50;;;;;;;;;;5071333;28;20342;-66
2021/08/16 11:51:15;;;;;;;9.43;2.75;;;;;;;;;;5051752;28;20044;-66
2021/08/16 11:53:44;;;;;;;6.40;2.78;;;;;;;;;;5057079;28;20060;-66
2021/08/16 11:56:10;;;;;;;10.38;2.95;;;;;;;;;;5070673;28;20025;-66
2021/08/16 11:58:36;;;;;;;8.85;3.97;;;;;;;;;;5070702;28;20438;-66
2021/08/16 12:01:02;;;;;;;11.98;3.80;;;;;;;;;;5070798;28;20032;-66
2021/08/16 12:03:28;;;;;;;13.10;3.60;;;;;;;;;;5070314;28;20406;-65
2021/08/16 12:05:53;;;;;;;6.25;3.60;;;;;;;;;;5076135;28;20099;-66
2021/08/16 12:08:21;;;;;;;12.00;4.80;;;;;;;;;;5069553;28;20028;-66
2021/08/16 12:10:46;;;;;;;8.75;4.18;;;;;;;;;;5070207;28;20285;-66
2021/08/16 12:13:11;;;;;;;15.90;4.43;;;;;;;;;;5070615;28;20025;-66
2021/08/16 12:15:43;;;;;;;8.93;3.13;;;;;;;;;;5071421;28;20660;-66
2021/08/16 12:18:08;;;;;;;10.68;5.13;;;;;;;;;;5071475;28;20482;-66
2021/08/16 12:20:40;;;;;;;8.77;4.45;;;;;;;;;;5071838;28;20032;-66
2021/08/16 12:23:05;;;;;;;13.88;5.78;;;;;;;;;;5069329;28;20070;-66
2021/08/16 12:25:31;;;;;;;10.10;5.15;;;;;;;;;;5070863;28;20028;-66
2021/08/16 12:27:57;;;;;;;15.07;6.20;;;;;;;;;;5070798;28;20074;-66
2021/08/16 12:30:22;;;;;;;10.38;5.13;;;;;;;;;;5070716;28;20028;-66
2021/08/16 12:32:48;;;;;;;6.95;4.00;;;;;;;;;;5069939;28;20032;-66
2021/08/16 12:35:16;;;;;;;11.45;5.05;;;;;;;;;;5070635;28;20070;-66
2021/08/16 12:37:42;;;;;;;10.68;4.70;;;;;;;;;;5069274;28;20020;-66
2021/08/16 12:40:08;;;;;;;9.40;4.78;;;;;;;;;;5051557;28;20082;-66
2021/08/16 12:42:33;;;;;;;13.40;5.78;;;;;;;;;;5069266;28;20052;-67
2021/08/16 12:44:59;;;;;;;12.93;5.22;;;;;;;;;;5071918;28;20059;-66
2021/08/16 12:47:25;;;;;;;15.50;6.25;;;;;;;;;;5069396;28;20044;-66
2021/08/16 12:49:54;;;;;;;16.23;5.95;;;;;;;;;;5069620;28;20043;-66
2021/08/16 12:52:19;;;;;;;16.35;6.82;;;;;;;;;;5068144;28;20021;-66
2021/08/16 12:54:45;;;;;;;13.98;7.15;;;;;;;;;;5069859;28;20089;-66
2021/08/16 12:57:10;;;;;;;18.70;7.60;;;;;;;;;;5069870;28;20119;-66
2021/08/16 12:59:35;;;;;;;16.07;7.33;;;;;;;;;;5070137;28;20267;-66
2021/08/16 13:02:00;;;;;;;26.17;7.80;;;;;;;;;;5070140;28;20266;-66
2021/08/16 13:04:26;;;;;;;23.50;8.80;;;;;;;;;;5070103;28;20381;-66
2021/08/16 13:06:51;;;;;;;18.52;10.00;;;;;;;;;;5070374;28;20024;-66
2021/08/16 13:09:16;;;;;;;30.43;9.93;;;;;;;;;;5069089;28;20023;-66
2021/08/16 13:11:41;;;;;;;25.10;9.82;;;;;;;;;;5068578;28;20799;-66
2021/08/16 13:14:06;;;;;;;18.92;7.90;;;;;;;;;;5068901;28;20451;-66
2021/08/16 13:16:32;;;;;;;22.07;7.43;;;;;;;;;;5070192;28;20372;-65
2021/08/16 13:18:57;;;;;;;19.17;7.78;;;;;;;;;;5071385;28;20271;-66
2021/08/16 13:21:22;;;;;;;17.03;7.23;;;;;;;;;;5069448;28;20027;-65
2021/08/16 13:23:47;;;;;;;16.30;7.70;;;;;;;;;;5068783;28;20792;-66
2021/08/16 13:26:12;;;;;;;18.02;7.60;;;;;;;;;;5068931;28;20362;-66
2021/08/16 13:28:38;;;;;;;18.83;7.57;;;;;;;;;;5067643;28;20029;-66
2021/08/16 13:31:03;;;;;;;18.33;7.60;;;;;;;;;;5068287;28;20265;-66
2021/08/16 13:33:28;;;;;;;18.90;6.97;;;;;;;;;;5068190;28;20263;-66
2021/08/16 13:35:53;;;;;;;25.77;7.85;;;;;;;;;;5068466;28;20020;-66
2021/08/16 13:38:18;;;;;;;17.02;7.78;;;;;;;;;;5068399;28;20074;-66
2021/08/16 13:40:44;;;;;;;22.08;7.97;;;;;;;;;;5068118;28;20025;-66
2021/08/16 13:43:09;;;;;;;22.63;8.50;;;;;;;;;;5068375;28;20024;-66
2021/08/16 13:45:34;;;;;;;22.77;6.97;;;;;;;;;;5068223;28;20274;-66
2021/08/16 13:47:59;;;;;;;21.53;6.83;;;;;;;;;;5068501;28;20024;-66
2021/08/16 13:50:25;;;;;;;20.43;9.67;;;;;;;;;;5068146;28;20721;-66
2021/08/16 13:52:50;;;;;;;22.20;9.50;;;;;;;;;;5067922;28;20270;-66
2021/08/16 13:55:15;;;;;;;25.50;9.77;;;;;;;;;;5068394;28;20040;-66
2021/08/16 13:57:40;;;;;;;24.57;10.33;;;;;;;;;;5068344;28;20633;-65
2021/08/16 14:00:06;;;;;;;23.48;10.45;;;;;;;;;;5069601;28;20392;-65
2021/08/16 14:02:32;;;;;;;28.00;10.60;;;;;;;;;;5069348;28;20131;-65
2021/08/16 14:04:57;;;;;;;26.73;10.75;;;;;;;;;;5069474;28;20027;-66
2021/08/16 14:07:22;;;;;;;23.27;9.70;;;;;;;;;;5069096;28;20489;-66
2021/08/16 14:09:48;;;;;;;22.98;10.30;;;;;;;;;;5068903;28;20019;-66
2021/08/16 14:12:13;;;;;;;23.40;10.23;;;;;;;;;;5072685;28;20019;-65
2021/08/16 14:14:38;;;;;;;23.10;11.13;;;;;;;;;;5076923;28;20776;-65
2021/08/16 14:17:03;;;;;;;28.30;11.35;;;;;;;;;;5068215;28;20258;-65
2021/08/16 14:19:30;;;;;;;23.55;12.23;;;;;;;;;;5068727;28;20103;-65
2021/08/16 14:21:55;;;;;;;23.73;12.48;;;;;;;;;;5069130;28;20025;-65
2021/08/16 14:24:20;;;;;;;31.27;14.13;;;;;;;;;;5071927;28;20105;-65
2021/08/16 14:26:45;;;;;;;30.87;14.30;;;;;;;;;;5073411;28;20916;-65